Time;durP1;ratioP1;P1;durP2;ratioP2;P2;SDS_P1;SDS_P2;PMS_P1;PMS_P2;Temp;Humidity;BMP_temperature;BMP_pressure;BME280_temperature;BME280_humidity;BME280_pressure;Samples;Min_cycle;Max_cycle;Signal;HPM_P1;HPM_P2
2023/07/22 00:00:28;;;;;;;2.78;1.30;;;22.30;92.20;;;;;;10024774;28;20469;-73
2023/07/22 00:05:23;;;;;;;3.63;1.67;;;22.20;92.30;;;;;;10024951;28;20030;-74
2023/07/22 00:10:14;;;;;;;3.20;1.75;;;22.10;92.40;;;;;;10038688;28;20049;-73
2023/07/22 00:15:06;;;;;;;2.65;1.63;;;22.20;92.40;;;;;;10034840;28;20032;-70
2023/07/22 00:19:56;;;;;;;3.35;1.35;;;22.10;92.60;;;;;;10030942;28;20066;-70
2023/07/22 00:24:47;;;;;;;2.22;1.50;;;22.00;92.80;;;;;;10025292;28;20488;-74
2023/07/22 00:29:38;;;;;;;1.80;1.27;;;22.00;92.80;;;;;;10020537;28;20045;-73
2023/07/22 00:34:28;;;;;;;3.08;1.58;;;21.90;92.80;;;;;;10036630;28;20109;-72
2023/07/22 00:39:20;;;;;;;3.08;1.73;;;21.80;93.00;;;;;;10054751;28;20029;-72
2023/07/22 00:44:12;;;;;;;2.55;1.55;;;21.80;92.90;;;;;;10031241;28;20117;-73
2023/07/22 00:49:08;;;;;;;2.05;1.55;;;21.70;93.00;;;;;;10027433;28;20132;-75
2023/07/22 00:53:58;;;;;;;2.83;2.03;;;21.60;93.00;;;;;;10065037;22;20057;-66
2023/07/22 00:58:49;;;;;;;3.75;1.50;;;21.70;93.00;;;;;;10058602;28;20032;-66
2023/07/22 01:03:41;;;;;;;2.58;1.30;;;21.70;92.90;;;;;;10061540;28;20113;-66
2023/07/22 01:08:31;;;;;;;2.45;1.55;;;21.60;93.00;;;;;;10057007;28;20572;-66
2023/07/22 01:13:22;;;;;;;3.55;1.75;;;21.40;93.10;;;;;;10056937;28;20124;-66
2023/07/22 01:18:12;;;;;;;3.75;1.40;;;21.30;93.40;;;;;;10084700;28;20074;-66
2023/07/22 01:23:04;;;;;;;2.83;1.65;;;21.40;93.40;;;;;;10056530;28;20143;-67
2023/07/22 01:27:54;;;;;;;4.38;2.25;;;21.30;93.40;;;;;;10056886;28;20041;-67
2023/07/22 01:32:46;;;;;;;3.10;1.85;;;21.20;93.40;;;;;;10058387;28;20111;-66
2023/07/22 01:37:37;;;;;;;3.25;1.65;;;21.20;93.70;;;;;;10057461;28;20029;-67
2023/07/22 01:42:28;;;;;;;2.72;1.63;;;21.10;93.60;;;;;;10058544;28;20037;-67
2023/07/22 01:47:18;;;;;;;4.53;1.75;;;21.10;93.80;;;;;;10057181;28;20102;-66
2023/07/22 01:52:09;;;;;;;6.03;2.10;;;21.10;93.70;;;;;;10056275;28;20160;-66
2023/07/22 01:56:59;;;;;;;2.95;1.92;;;21.10;93.70;;;;;;10054405;28;20104;-67
2023/07/22 02:01:51;;;;;;;5.35;3.25;;;21.10;93.60;;;;;;10063339;28;20033;-67
2023/07/22 02:06:41;;;;;;;2.72;1.52;;;20.90;93.90;;;;;;10063414;28;20040;-66
2023/07/22 02:11:32;;;;;;;2.72;2.13;;;20.90;93.90;;;;;;10064029;28;20407;-65
2023/07/22 02:16:23;;;;;;;2.95;1.60;;;20.90;93.80;;;;;;10063769;28;20042;-67
2023/07/22 02:21:14;;;;;;;2.47;1.52;;;20.80;94.00;;;;;;10061569;28;20034;-66
2023/07/22 02:26:04;;;;;;;2.30;1.73;;;20.90;93.80;;;;;;10064688;28;20446;-66
2023/07/22 02:30:55;;;;;;;5.50;1.67;;;20.80;94.10;;;;;;10065412;28;20087;-67
2023/07/22 02:35:47;;;;;;;1.63;1.33;;;20.70;94.40;;;;;;10077752;28;20040;-67
2023/07/22 02:40:38;;;;;;;3.35;1.58;;;20.60;94.30;;;;;;10062516;28;20030;-67
2023/07/22 02:45:29;;;;;;;2.92;1.67;;;20.60;94.60;;;;;;10066596;28;20476;-67
2023/07/22 02:50:20;;;;;;;4.47;1.77;;;20.60;94.50;;;;;;10066465;28;20045;-68
2023/07/22 02:55:16;;;;;;;4.13;2.75;;;20.50;94.50;;;;;;10063729;28;20408;-67
2023/07/22 03:00:08;;;;;;;5.45;2.83;;;20.50;94.60;;;;;;10062237;28;20033;-67
2023/07/22 03:04:58;;;;;;;4.32;1.98;;;20.50;94.60;;;;;;10059051;28;20029;-67
2023/07/22 03:09:49;;;;;;;3.60;2.03;;;20.50;94.60;;;;;;10056879;28;20530;-66
2023/07/22 03:14:39;;;;;;;2.78;1.90;;;20.40;95.00;;;;;;10060943;28;20033;-67
2023/07/22 03:19:30;;;;;;;2.50;1.90;;;20.40;95.00;;;;;;10060957;28;20033;-68
2023/07/22 03:24:21;;;;;;;4.00;2.03;;;20.30;95.30;;;;;;10060709;28;20307;-66
2023/07/22 03:29:11;;;;;;;3.78;1.88;;;20.30;95.30;;;;;;10069105;28;20045;-66
2023/07/22 03:34:02;;;;;;;3.30;1.83;;;20.30;95.30;;;;;;10060461;28;20041;-67
2023/07/22 03:38:53;;;;;;;4.13;2.10;;;20.10;95.40;;;;;;10064256;28;20443;-67
2023/07/22 03:43:43;;;;;;;5.50;1.90;;;20.10;95.80;;;;;;10063143;28;20391;-67
2023/07/22 03:48:34;;;;;;;2.92;2.00;;;20.00;95.80;;;;;;10065554;28;20057;-67
2023/07/22 03:53:24;;;;;;;5.93;2.10;;;20.20;95.70;;;;;;10059394;28;20534;-66
2023/07/22 03:58:15;;;;;;;3.40;2.08;;;20.10;95.70;;;;;;10059560;28;20521;-67
2023/07/22 04:03:06;;;;;;;2.88;1.80;;;20.00;96.10;;;;;;10059283;28;20037;-67
2023/07/22 04:07:57;;;;;;;6.15;2.20;;;19.90;96.10;;;;;;10060182;28;20124;-67
2023/07/22 04:12:47;;;;;;;2.15;1.50;;;19.80;96.20;;;;;;10058786;28;20091;-68
2023/07/22 04:17:39;;;;;;;4.03;2.08;;;19.60;96.50;;;;;;10057714;28;20434;-65
2023/07/22 04:22:29;;;;;;;3.42;1.90;;;19.60;96.60;;;;;;10057121;28;20503;-65
2023/07/22 04:27:20;;;;;;;3.75;2.28;;;19.60;96.60;;;;;;10058736;28;20093;-66
2023/07/22 04:32:11;;;;;;;4.22;2.00;;;19.60;96.70;;;;;;10058279;28;20099;-66
2023/07/22 04:37:01;;;;;;;3.00;1.75;;;19.60;96.60;;;;;;10058402;28;20020;-66
2023/07/22 04:41:52;;;;;;;5.20;2.22;;;19.50;96.70;;;;;;10060936;28;20072;-66
2023/07/22 04:46:42;;;;;;;3.38;1.75;;;19.40;96.70;;;;;;10060023;28;20040;-66
2023/07/22 04:51:33;;;;;;;2.60;1.85;;;19.40;96.80;;;;;;10057804;28;20053;-66
2023/07/22 04:56:24;;;;;;;2.30;1.90;;;19.30;96.90;;;;;;10057347;28;20036;-69
2023/07/22 05:01:15;;;;;;;4.53;2.00;;;19.40;96.80;;;;;;10060990;28;20031;-66
2023/07/22 05:06:05;;;;;;;3.53;3.05;;;19.40;96.80;;;;;;10053806;28;20108;-67
2023/07/22 05:10:56;;;;;;;4.70;2.13;;;19.60;96.80;;;;;;10054627;28;20550;-68
2023/07/22 05:15:46;;;;;;;6.15;1.90;;;19.50;96.80;;;;;;10056617;28;20033;-67
2023/07/22 05:20:39;;;;;;;3.60;2.13;;;19.50;96.90;;;;;;10056610;28;20025;-66
2023/07/22 05:25:29;;;;;;;3.03;1.83;;;19.50;97.10;;;;;;10051548;28;20173;-66
2023/07/22 05:30:20;;;;;;;3.40;2.08;;;19.60;97.10;;;;;;10056847;28;20260;-66
2023/07/22 05:35:10;;;;;;;5.30;1.50;;;19.60;97.20;;;;;;10056220;28;20395;-66
2023/07/22 05:40:01;;;;;;;3.63;1.40;;;19.80;97.30;;;;;;10058382;28;20392;-66
2023/07/22 05:44:54;;;;;;;3.50;1.70;;;19.80;97.10;;;;;;10059008;28;20026;-67
2023/07/22 05:49:44;;;;;;;2.92;1.65;;;19.70;97.10;;;;;;10061497;28;20052;-70
2023/07/22 05:54:35;;;;;;;2.63;1.63;;;19.90;97.10;;;;;;10059124;28;20400;-66
2023/07/22 05:59:26;;;;;;;2.97;1.90;;;20.00;96.90;;;;;;10055924;28;20025;-67
2023/07/22 06:04:16;;;;;;;4.32;1.88;;;20.00;97.00;;;;;;10055418;28;20026;-67
2023/07/22 06:09:07;;;;;;;3.53;1.88;;;20.00;96.90;;;;;;10056203;28;20116;-67
2023/07/22 06:13:57;;;;;;;2.75;1.70;;;20.00;97.00;;;;;;10056205;28;20044;-67
2023/07/22 06:18:48;;;;;;;3.47;1.83;;;20.10;96.90;;;;;;10056013;28;20713;-67
2023/07/22 06:23:39;;;;;;;2.92;1.63;;;20.10;96.90;;;;;;10056253;28;20047;-67
2023/07/22 06:28:29;;;;;;;2.80;2.00;;;20.20;96.90;;;;;;10055811;28;20033;-67
2023/07/22 06:33:20;;;;;;;4.50;2.00;;;20.20;97.00;;;;;;10054963;28;20184;-66
2023/07/22 06:38:10;;;;;;;2.97;1.95;;;20.20;97.00;;;;;;10056254;28;20036;-67
2023/07/22 06:43:01;;;;;;;4.10;1.65;;;20.30;96.90;;;;;;10057578;28;20354;-67
2023/07/22 06:47:52;;;;;;;2.63;1.70;;;20.30;96.90;;;;;;10063067;28;20037;-66
2023/07/22 06:52:42;;;;;;;3.33;1.95;;;20.30;96.80;;;;;;10063315;28;20049;-66
2023/07/22 06:57:33;;;;;;;3.63;1.60;;;20.40;96.90;;;;;;10066095;28;20037;-67
2023/07/22 07:02:24;;;;;;;4.03;1.90;;;20.30;97.00;;;;;;10061056;28;20057;-67
2023/07/22 07:07:15;;;;;;;3.42;1.50;;;20.30;97.00;;;;;;10063722;28;20029;-68
2023/07/22 07:12:06;;;;;;;3.65;1.52;;;20.40;97.10;;;;;;10061157;28;20399;-66
2023/07/22 07:16:57;;;;;;;3.67;1.63;;;20.50;97.10;;;;;;10060992;28;20585;-66
2023/07/22 07:21:47;;;;;;;2.20;1.40;;;20.60;97.20;;;;;;10061724;28;20090;-66
2023/07/22 07:26:38;;;;;;;3.35;1.50;;;20.60;97.30;;;;;;10060911;28;20270;-67
2023/07/22 07:31:29;;;;;;;2.42;1.42;;;20.70;97.30;;;;;;10060296;28;20510;-66
2023/07/22 07:36:19;;;;;;;2.60;1.65;;;20.80;97.30;;;;;;10060073;28;20033;-66
2023/07/22 07:41:13;;;;;;;2.60;1.30;;;20.90;97.30;;;;;;10083676;28;20510;-66
2023/07/22 07:46:25;;;;;;;1.98;1.70;;;21.10;97.20;;;;;;10062660;28;20408;-67
2023/07/22 07:51:18;;;;;;;3.33;1.80;;;21.20;97.30;;;;;;10063820;28;20061;-70
2023/07/22 07:56:09;;;;;;;2.88;1.58;;;21.20;97.30;;;;;;10058935;28;20276;-70
2023/07/22 08:01:00;;;;;;;7.60;3.47;;;21.10;97.40;;;;;;10060085;28;20041;-71
2023/07/22 08:05:50;;;;;;;2.70;2.10;;;21.20;97.50;;;;;;10060108;28;20033;-67
2023/07/22 08:10:43;;;;;;;3.58;1.90;;;21.20;97.50;;;;;;10058996;28;20033;-68
2023/07/22 08:15:34;;;;;;;4.07;1.90;;;21.30;97.50;;;;;;10059788;28;20033;-69
2023/07/22 08:20:24;;;;;;;3.92;1.90;;;21.40;97.40;;;;;;10062747;28;20021;-67
2023/07/22 08:25:15;;;;;;;4.07;1.45;;;21.50;97.40;;;;;;10058417;28;20033;-66
2023/07/22 08:30:07;;;;;;;2.40;1.65;;;21.40;97.30;;;;;;10058763;28;20049;-66
2023/07/22 08:34:57;;;;;;;2.50;1.50;;;21.50;97.30;;;;;;10057651;28;20033;-66
2023/07/22 08:39:48;;;;;;;3.15;2.20;;;21.60;97.30;;;;;;10062797;28;20143;-67
2023/07/22 08:44:43;;;;;;;2.03;1.83;;;21.60;97.20;;;;;;10062435;28;20040;-68
2023/07/22 08:49:34;;;;;;;3.47;2.05;;;21.70;97.20;;;;;;10066530;28;20156;-67
2023/07/22 08:54:25;;;;;;;2.33;1.60;;;21.70;97.20;;;;;;10056303;28;20044;-66
2023/07/22 08:59:18;;;;;;;2.05;1.27;;;21.80;97.00;;;;;;10057948;28;20071;-71
2023/07/22 09:04:08;;;;;;;2.78;1.73;;;21.90;97.00;;;;;;10058169;28;20021;-70
2023/07/22 09:09:00;;;;;;;3.28;1.90;;;22.00;96.90;;;;;;10055782;28;20133;-70
2023/07/22 09:13:52;;;;;;;1.60;1.35;;;22.20;96.90;;;;;;10054761;28;20591;-67
2023/07/22 09:18:43;;;;;;;2.28;1.60;;;22.30;96.60;;;;;;10059412;28;20040;-66
2023/07/22 09:23:36;;;;;;;2.55;1.52;;;22.40;96.40;;;;;;10056576;28;20025;-67
2023/07/22 09:28:27;;;;;;;2.97;1.30;;;22.40;96.30;;;;;;10057544;28;20033;-69
2023/07/22 09:33:22;;;;;;;2.17;1.23;;;22.50;96.30;;;;;;10056587;28;20038;-68
2023/07/22 09:38:15;;;;;;;4.15;1.50;;;22.50;96.20;;;;;;10059513;28;20042;-66
2023/07/22 09:43:08;;;;;;;1.70;1.15;;;22.60;96.10;;;;;;10058836;28;20192;-70
2023/07/22 09:47:59;;;;;;;2.15;1.13;;;22.70;95.70;;;;;;10060353;28;20040;-70
2023/07/22 09:52:53;;;;;;;2.42;1.95;;;22.70;95.50;;;;;;10053649;28;20061;-71
2023/07/22 09:57:46;;;;;;;1.92;1.20;;;22.80;95.10;;;;;;10052297;28;20087;-68
2023/07/22 10:02:39;;;;;;;2.28;1.13;;;22.90;94.80;;;;;;10055670;28;20038;-68
2023/07/22 10:07:34;;;;;;;3.13;1.25;;;23.00;94.60;;;;;;10055569;28;20065;-73
2023/07/22 10:12:27;;;;;;;2.05;1.17;;;23.10;94.30;;;;;;10055592;28;20057;-67
2023/07/22 10:17:19;;;;;;;1.98;1.00;;;23.10;94.20;;;;;;10071189;28;20455;-67
2023/07/22 10:22:10;;;;;;;1.33;1.08;;;23.30;93.90;;;;;;10062544;28;20048;-69
2023/07/22 10:27:01;;;;;;;1.27;0.82;;;23.40;93.40;;;;;;10069175;28;20032;-71
2023/07/22 10:31:53;;;;;;;1.30;1.00;;;23.40;93.10;;;;;;10062521;28;20086;-68
2023/07/22 10:36:47;;;;;;;5.72;2.00;;;23.50;92.70;;;;;;10062610;28;20021;-67
2023/07/22 10:41:39;;;;;;;2.00;1.23;;;23.50;92.40;;;;;;10065550;28;20068;-67
2023/07/22 10:46:35;;;;;;;1.73;1.00;;;23.60;92.10;;;;;;10066972;28;20036;-67
2023/07/22 10:51:36;;;;;;;4.22;1.65;;;23.60;91.60;;;;;;10075240;28;20053;-69
2023/07/22 10:56:27;;;;;;;2.17;1.33;;;23.70;91.30;;;;;;10065569;28;20026;-74
2023/07/22 11:01:32;;;;;;;2.35;0.98;;;23.60;91.20;;;;;;10064259;28;20033;-72
2023/07/22 11:06:22;;;;;;;1.67;1.10;;;23.60;91.00;;;;;;10064326;28;20025;-72
2023/07/22 11:11:13;;;;;;;4.07;1.30;;;23.70;91.10;;;;;;10062602;28;20092;-68
2023/07/22 11:16:04;;;;;;;2.20;1.13;;;23.80;90.90;;;;;;10062868;28;20129;-67
2023/07/22 11:20:54;;;;;;;2.38;1.15;;;23.70;90.50;;;;;;10061833;28;20053;-66
2023/07/22 11:25:46;;;;;;;2.10;1.35;;;23.70;90.30;;;;;;10060949;28;20116;-67
2023/07/22 11:30:37;;;;;;;1.33;1.17;;;23.80;90.00;;;;;;10059696;28;20082;-67
2023/07/22 11:35:28;;;;;;;1.85;1.15;;;23.80;90.10;;;;;;10060709;28;20506;-67
2023/07/22 11:40:18;;;;;;;1.77;1.20;;;23.90;89.20;;;;;;10060147;28;20033;-67
2023/07/22 11:45:10;;;;;;;2.80;1.42;;;23.90;88.70;;;;;;10064223;28;20038;-66
2023/07/22 11:50:01;;;;;;;2.03;1.17;;;24.00;88.40;;;;;;10063447;28;20104;-66
2023/07/22 11:54:52;;;;;;;1.48;0.90;;;24.30;88.00;;;;;;10054937;28;20490;-67
2023/07/22 11:59:46;;;;;;;1.95;1.20;;;24.50;87.30;;;;;;10058802;28;20037;-66
2023/07/22 12:04:38;;;;;;;2.22;1.30;;;24.30;86.90;;;;;;10073940;28;20022;-66
2023/07/22 12:09:29;;;;;;;1.27;0.80;;;24.30;86.70;;;;;;10059106;28;20041;-67
2023/07/22 12:14:19;;;;;;;1.55;1.30;;;24.30;86.40;;;;;;10058837;28;20021;-66
2023/07/22 12:19:11;;;;;;;2.35;1.15;;;24.30;86.10;;;;;;10065690;28;20029;-67
2023/07/22 12:24:04;;;;;;;1.75;1.20;;;24.50;86.00;;;;;;10056569;28;20313;-66
2023/07/22 12:28:54;;;;;;;2.33;1.42;;;24.80;84.90;;;;;;10062374;28;20045;-67
2023/07/22 12:33:45;;;;;;;4.80;1.73;;;24.90;84.40;;;;;;10060294;28;20164;-66
2023/07/22 12:38:36;;;;;;;2.33;1.70;;;24.90;83.80;;;;;;10063579;28;20110;-66
2023/07/22 12:43:26;;;;;;;2.15;1.35;;;25.00;83.40;;;;;;10059785;28;20073;-68
2023/07/22 12:48:17;;;;;;;4.22;1.92;;;25.10;83.00;;;;;;10059247;28;20117;-67
2023/07/22 12:53:08;;;;;;;3.28;1.25;;;25.30;82.60;;;;;;10056513;28;20537;-67
2023/07/22 12:57:58;;;;;;;1.80;1.40;;;25.50;81.90;;;;;;10057045;28;20037;-66
2023/07/22 13:02:49;;;;;;;2.63;1.30;;;25.60;81.00;;;;;;10057138;28;20030;-67
2023/07/22 13:07:40;;;;;;;2.47;1.10;;;25.70;80.70;;;;;;10057564;28;20055;-67
2023/07/22 13:12:30;;;;;;;2.38;1.33;;;25.80;80.40;;;;;;10056871;28;20049;-67
2023/07/22 13:17:21;;;;;;;3.17;2.10;;;25.80;79.90;;;;;;10057142;28;20487;-70
2023/07/22 13:22:12;;;;;;;3.25;1.52;;;25.90;78.90;;;;;;10056554;28;20029;-67
2023/07/22 13:27:03;;;;;;;2.03;1.40;;;26.20;78.20;;;;;;10058995;28;20017;-67
2023/07/22 13:31:54;;;;;;;2.33;1.42;;;26.30;77.30;;;;;;10058407;28;20049;-68
2023/07/22 13:36:44;;;;;;;2.28;1.55;;;26.40;76.60;;;;;;10071575;28;20022;-67
2023/07/22 13:41:35;;;;;;;2.47;1.45;;;26.60;76.50;;;;;;10061931;28;20055;-66
2023/07/22 13:46:26;;;;;;;1.70;1.30;;;26.70;75.40;;;;;;10058403;28;20049;-67
2023/07/22 13:51:16;;;;;;;3.05;1.42;;;26.80;74.90;;;;;;10055523;28;20053;-66
2023/07/22 13:56:07;;;;;;;2.88;1.50;;;26.90;74.20;;;;;;10065115;28;20105;-67
2023/07/22 14:00:57;;;;;;;2.05;1.42;;;27.10;73.90;;;;;;10063997;28;20025;-66
2023/07/22 14:05:48;;;;;;;3.28;1.20;;;27.20;73.60;;;;;;10064792;28;20088;-67
2023/07/22 14:10:38;;;;;;;2.42;1.75;;;27.20;73.10;;;;;;10063014;28;20045;-67
2023/07/22 14:15:29;;;;;;;2.67;1.48;;;27.00;73.10;;;;;;10064405;28;20029;-67
2023/07/22 14:20:20;;;;;;;2.80;1.58;;;26.80;72.90;;;;;;10062965;28;20026;-67
2023/07/22 14:25:11;;;;;;;2.13;1.40;;;26.70;72.80;;;;;;10063617;28;20029;-68
2023/07/22 14:30:04;;;;;;;1.92;1.40;;;26.60;72.60;;;;;;10063470;28;20052;-67
2023/07/22 14:34:55;;;;;;;3.25;2.20;;;26.60;72.40;;;;;;10062813;28;20329;-66
2023/07/22 14:39:46;;;;;;;4.32;1.48;;;26.60;72.20;;;;;;10071987;28;20037;-67
2023/07/22 14:44:36;;;;;;;2.70;1.38;;;26.70;72.10;;;;;;10065303;28;20056;-67
2023/07/22 14:49:27;;;;;;;2.08;1.33;;;26.80;72.00;;;;;;10067974;28;20038;-66
2023/07/22 14:54:17;;;;;;;2.33;1.42;;;27.00;71.80;;;;;;10063133;28;20411;-67
2023/07/22 14:59:08;;;;;;;3.58;1.70;;;27.00;71.60;;;;;;10063407;28;20033;-66
2023/07/22 15:03:59;;;;;;;3.30;2.33;;;27.00;71.70;;;;;;10059552;28;20025;-67
2023/07/22 15:08:49;;;;;;;2.83;1.50;;;27.10;71.50;;;;;;10060818;28;20167;-67
2023/07/22 15:13:40;;;;;;;2.40;1.48;;;27.60;71.40;;;;;;10061285;28;20029;-68
2023/07/22 15:18:30;;;;;;;2.38;1.63;;;27.50;71.30;;;;;;10061585;28;20192;-69
2023/07/22 15:23:21;;;;;;;3.35;1.60;;;27.80;71.10;;;;;;10063203;28;20037;-67
2023/07/22 15:28:12;;;;;;;4.03;1.80;;;28.20;70.90;;;;;;10060361;28;20128;-68
2023/07/22 15:33:02;;;;;;;2.33;1.73;;;28.50;70.20;;;;;;10060497;28;20399;-67
2023/07/22 15:37:54;;;;;;;2.65;1.75;;;29.00;69.60;;;;;;10066978;28;20060;-68
2023/07/22 15:42:44;;;;;;;4.53;1.35;;;29.10;69.00;;;;;;10066529;28;20059;-68
2023/07/22 15:47:35;;;;;;;3.47;1.80;;;29.00;68.70;;;;;;10061251;28;20446;-68
2023/07/22 15:52:26;;;;;;;3.65;1.67;;;29.90;68.20;;;;;;10059045;28;20091;-68
2023/07/22 15:57:16;;;;;;;4.95;2.33;;;29.90;67.60;;;;;;10060225;28;20132;-67
2023/07/22 16:02:07;;;;;;;4.20;2.15;;;30.20;67.10;;;;;;10064262;28;20423;-68
2023/07/22 16:06:57;;;;;;;4.47;2.00;;;30.40;66.50;;;;;;10075262;28;20052;-69
2023/07/22 16:11:48;;;;;;;3.80;2.15;;;30.70;66.20;;;;;;10058691;28;20056;-69
2023/07/22 16:16:39;;;;;;;1.63;1.25;;;30.90;65.70;;;;;;10060034;28;20548;-69
2023/07/22 16:21:29;;;;;;;4.00;1.70;;;30.50;65.00;;;;;;10062157;28;20371;-68
2023/07/22 16:26:20;;;;;;;2.10;1.60;;;30.50;64.90;;;;;;10058156;28;20025;-68
2023/07/22 16:31:10;;;;;;;2.50;1.75;;;30.50;64.70;;;;;;10058027;28;20049;-67
2023/07/22 16:36:02;;;;;;;2.20;1.58;;;30.30;64.30;;;;;;10058486;28;20045;-68
2023/07/22 16:40:53;;;;;;;3.58;2.00;;;30.40;64.30;;;;;;10057937;28;20167;-68
2023/07/22 16:45:44;;;;;;;2.72;1.50;;;30.40;63.80;;;;;;10061648;28;20034;-67
2023/07/22 16:50:34;;;;;;;3.08;1.80;;;31.00;63.40;;;;;;10072838;28;20056;-70
2023/07/22 16:55:25;;;;;;;2.63;1.58;;;31.40;63.10;;;;;;10058135;28;20026;-72
2023/07/22 17:00:16;;;;;;;2.90;1.75;;;31.30;62.70;;;;;;10057048;28;20064;-73
2023/07/22 17:05:07;;;;;;;3.00;1.70;;;31.10;62.60;;;;;;10057694;28;20032;-72
2023/07/22 17:09:57;;;;;;;2.72;1.65;;;31.00;62.50;;;;;;10056976;28;20159;-73
2023/07/22 17:14:48;;;;;;;2.92;2.00;;;31.40;62.00;;;;;;10062714;28;20056;-73
2023/07/22 17:19:38;;;;;;;2.05;1.50;;;31.30;61.90;;;;;;10056670;28;20037;-70
2023/07/22 17:24:29;;;;;;;2.97;1.80;;;31.20;61.90;;;;;;10057245;28;20028;-68
2023/07/22 17:29:20;;;;;;;2.35;1.48;;;31.50;61.60;;;;;;10056154;28;20045;-68
2023/07/22 17:34:10;;;;;;;4.32;2.30;;;31.30;61.20;;;;;;10056811;28;20410;-68
2023/07/22 17:39:01;;;;;;;3.13;2.05;;;31.40;61.30;;;;;;10056442;28;20043;-66
2023/07/22 17:43:51;;;;;;;3.60;2.20;;;31.60;61.00;;;;;;10055913;28;20029;-67
2023/07/22 17:48:42;;;;;;;3.30;2.10;;;31.30;61.00;;;;;;10052971;28;20084;-68
2023/07/22 17:53:33;;;;;;;3.10;1.75;;;30.70;61.10;;;;;;10054465;28;20048;-68
2023/07/22 17:58:23;;;;;;;2.53;2.10;;;30.20;61.40;;;;;;10060686;28;20044;-67
2023/07/22 18:03:14;;;;;;;2.78;1.80;;;29.90;61.30;;;;;;10055493;28;20034;-67
2023/07/22 18:08:05;;;;;;;2.72;2.33;;;29.80;61.50;;;;;;10055804;28;20103;-67
2023/07/22 18:12:55;;;;;;;2.40;1.73;;;29.70;61.40;;;;;;10055372;28;20048;-67
2023/07/22 18:17:46;;;;;;;2.33;1.40;;;29.50;61.50;;;;;;10056456;28;20026;-71
2023/07/22 18:22:36;;;;;;;2.70;1.80;;;29.40;61.60;;;;;;10055828;28;20025;-72
2023/07/22 18:27:27;;;;;;;3.42;1.77;;;29.40;61.70;;;;;;10055691;28;20499;-69
2023/07/22 18:32:18;;;;;;;3.20;2.40;;;29.30;62.00;;;;;;10055239;28;20227;-66
2023/07/22 18:37:08;;;;;;;3.13;1.65;;;29.30;62.00;;;;;;10059185;28;20112;-67
2023/07/22 18:41:59;;;;;;;5.72;2.20;;;29.30;62.10;;;;;;10062792;28;20037;-66
2023/07/22 18:46:49;;;;;;;3.72;1.85;;;29.20;62.40;;;;;;10064500;28;20018;-66
2023/07/22 18:51:40;;;;;;;3.40;1.85;;;29.10;62.70;;;;;;10064620;28;20064;-68
2023/07/22 18:56:31;;;;;;;3.67;1.80;;;29.00;63.10;;;;;;10062138;28;20049;-66
2023/07/22 19:01:21;;;;;;;2.90;2.25;;;28.80;63.50;;;;;;10062480;28;20033;-67
2023/07/22 19:06:12;;;;;;;2.13;1.38;;;28.80;63.70;;;;;;10072597;28;20164;-66
2023/07/22 19:11:05;;;;;;;2.63;1.55;;;28.70;64.10;;;;;;10061514;28;20091;-66
2023/07/22 19:15:56;;;;;;;3.63;1.98;;;28.70;64.30;;;;;;10061687;28;20025;-68
2023/07/22 19:20:58;;;;;;;3.10;1.83;;;28.60;64.60;;;;;;10062356;28;20120;-68
2023/07/22 19:25:48;;;;;;;3.25;1.92;;;28.60;64.60;;;;;;10061592;28;20033;-66
2023/07/22 19:30:39;;;;;;;2.55;1.80;;;28.60;64.80;;;;;;10060541;28;20112;-66
2023/07/22 19:35:30;;;;;;;2.45;1.77;;;28.60;64.80;;;;;;10066958;28;20055;-66
2023/07/22 19:40:20;;;;;;;3.00;2.65;;;28.60;64.90;;;;;;10060236;28;20048;-66
2023/07/22 19:45:11;;;;;;;4.07;2.17;;;28.60;65.20;;;;;;10064177;28;20300;-66
2023/07/22 19:50:02;;;;;;;2.58;1.95;;;28.60;65.40;;;;;;10059093;28;20068;-66
2023/07/22 19:54:53;;;;;;;3.40;2.47;;;28.50;65.60;;;;;;10059099;28;20095;-66
2023/07/22 19:59:44;;;;;;;2.92;2.00;;;28.50;65.80;;;;;;10059423;28;20103;-66
2023/07/22 20:04:34;;;;;;;4.78;2.45;;;28.50;65.90;;;;;;10057699;28;20112;-69
2023/07/22 20:09:25;;;;;;;7.88;2.50;;;28.40;66.00;;;;;;10056574;28;20044;-68
2023/07/22 20:14:16;;;;;;;3.42;2.10;;;28.30;66.20;;;;;;10048281;28;20037;-69
2023/07/22 20:19:06;;;;;;;5.10;2.50;;;28.30;66.50;;;;;;10068362;28;20029;-67
2023/07/22 20:23:57;;;;;;;4.10;2.30;;;28.20;66.80;;;;;;10063057;28;20029;-67
2023/07/22 20:28:47;;;;;;;6.10;2.45;;;28.20;66.90;;;;;;10058988;28;20037;-67
2023/07/22 20:33:38;;;;;;;3.92;2.75;;;28.10;67.30;;;;;;10060106;28;20482;-67
2023/07/22 20:38:29;;;;;;;4.10;2.47;;;28.00;67.50;;;;;;10058619;28;20041;-67
2023/07/22 20:43:20;;;;;;;4.95;2.20;;;28.00;67.80;;;;;;10060679;28;20095;-67
2023/07/22 20:48:11;;;;;;;5.20;2.00;;;27.80;68.10;;;;;;10059583;28;20104;-68
2023/07/22 20:53:01;;;;;;;4.15;2.15;;;27.80;68.30;;;;;;10057042;28;20156;-69
2023/07/22 20:57:52;;;;;;;3.15;1.92;;;27.70;68.50;;;;;;10057823;28;20395;-68
2023/07/22 21:02:43;;;;;;;4.20;2.15;;;27.60;68.80;;;;;;10056675;28;20037;-66
2023/07/22 21:07:34;;;;;;;6.28;2.50;;;27.60;69.30;;;;;;10057102;28;20499;-66
2023/07/22 21:12:25;;;;;;;4.35;1.90;;;27.50;69.50;;;;;;10058713;28;20045;-66
2023/07/22 21:17:15;;;;;;;1.95;1.38;;;27.50;69.70;;;;;;10056076;28;20033;-66
2023/07/22 21:22:06;;;;;;;2.45;1.50;;;27.40;70.00;;;;;;10057167;28;20065;-66
2023/07/22 21:26:57;;;;;;;2.63;1.70;;;27.40;70.20;;;;;;10060549;28;20487;-68
2023/07/22 21:31:47;;;;;;;1.90;1.58;;;27.20;70.60;;;;;;10059634;28;20038;-68
2023/07/22 21:36:38;;;;;;;2.72;1.80;;;27.20;70.90;;;;;;10056142;28;20302;-67
2023/07/22 21:41:29;;;;;;;4.18;1.92;;;27.10;71.30;;;;;;10057380;28;20435;-67
2023/07/22 21:46:19;;;;;;;3.13;1.67;;;27.00;71.70;;;;;;10059654;28;20550;-67
2023/07/22 21:51:10;;;;;;;2.80;2.00;;;27.00;71.90;;;;;;10055489;28;20041;-66
2023/07/22 21:56:00;;;;;;;2.47;1.92;;;26.90;72.30;;;;;;10059758;28;20329;-68
2023/07/22 22:00:51;;;;;;;3.05;1.45;;;26.80;72.40;;;;;;10058243;28;20037;-66
2023/07/22 22:05:42;;;;;;;5.50;2.05;;;26.80;72.50;;;;;;10056804;28;20083;-68
2023/07/22 22:10:34;;;;;;;2.15;1.65;;;26.80;72.50;;;;;;10055437;28;20076;-69
2023/07/22 22:15:25;;;;;;;3.47;1.70;;;26.70;73.00;;;;;;10058037;28;20021;-66
2023/07/22 22:20:16;;;;;;;2.83;1.55;;;26.50;73.30;;;;;;10063636;28;20029;-66
2023/07/22 22:25:07;;;;;;;2.63;1.60;;;26.50;73.40;;;;;;10063599;28;20530;-67
2023/07/22 22:29:58;;;;;;;3.40;2.15;;;26.50;73.70;;;;;;10063811;28;20038;-67
2023/07/22 22:34:48;;;;;;;3.08;2.13;;;26.40;73.80;;;;;;10067736;28;20032;-66
2023/07/22 22:39:39;;;;;;;3.92;1.67;;;26.30;74.00;;;;;;10063008;28;20041;-67
2023/07/22 22:44:30;;;;;;;2.25;1.75;;;26.20;74.50;;;;;;10065749;28;20022;-66
2023/07/22 22:49:20;;;;;;;3.92;2.10;;;26.10;74.60;;;;;;10063235;28;20037;-71
2023/07/22 22:54:11;;;;;;;4.03;2.15;;;26.10;74.70;;;;;;10062081;28;20052;-73
2023/07/22 22:59:09;;;;;;;4.22;1.65;;;26.10;74.70;;;;;;10065191;28;20498;-73
2023/07/22 23:03:59;;;;;;;3.58;2.15;;;25.90;74.90;;;;;;10061546;28;20041;-74
2023/07/22 23:08:50;;;;;;;3.47;2.47;;;25.90;75.20;;;;;;10061766;28;20502;-72
2023/07/22 23:13:40;;;;;;;3.90;1.75;;;25.90;75.50;;;;;;10061920;28;20040;-66
2023/07/22 23:18:31;;;;;;;4.20;1.60;;;25.90;75.30;;;;;;10065670;28;20192;-67
2023/07/22 23:23:22;;;;;;;4.38;1.63;;;25.80;75.40;;;;;;10061115;28;20040;-67
2023/07/22 23:28:13;;;;;;;2.30;1.42;;;25.70;76.00;;;;;;10060449;28;20113;-66
2023/07/22 23:33:03;;;;;;;3.13;1.85;;;25.70;76.10;;;;;;10064509;28;20037;-69
2023/07/22 23:37:54;;;;;;;3.35;1.42;;;25.70;76.20;;;;;;10072425;28;20034;-69
2023/07/22 23:42:44;;;;;;;3.15;2.00;;;25.60;76.40;;;;;;10063197;28;20029;-72
2023/07/22 23:47:35;;;;;;;4.90;1.88;;;25.60;76.60;;;;;;10061691;28;20033;-68
2023/07/22 23:52:26;;;;;;;2.88;1.80;;;25.60;76.70;;;;;;10058200;28;20060;-68
2023/07/22 23:57:16;;;;;;;3.20;1.58;;;25.50;76.80;;;;;;10059406;28;20388;-69
